Time,TemperatureF,DewpointF,PressureIn,WindDirection,WindDirectionDegrees,WindSpeedMPH,WindSpeedGustMPH,Humidity,HourlyPrecipIn,Conditions,Clouds,dailyrainin,SoftwareType,DateUTC
2013-05-09 00:10:00,33.3,32.0,29.96,NNE,18,0.0,-999.0,94,-99.99,,,0.00,weatherlink.com 1.10,2013-05-09 06:10:00,
2013-05-09 00:25:00,33.6,32.0,29.96,NNE,18,0.0,-999.0,94,-99.99,,,0.01,weatherlink.com 1.10,2013-05-09 06:25:00,
2013-05-09 00:40:00,33.7,32.0,29.97,NNE,18,0.0,-999.0,94,-99.99,,,0.01,weatherlink.com 1.10,2013-05-09 06:40:00,
2013-05-09 00:55:00,34.1,33.0,29.97,NNE,18,1.0,-999.0,94,-99.99,,,0.01,weatherlink.com 1.10,2013-05-09 06:55:00,
2013-05-09 01:10:00,34.4,33.0,29.97,NNE,18,0.0,-999.0,94,-99.99,,,0.01,weatherlink.com 1.10,2013-05-09 07:10:00,
2013-05-09 01:25:00,34.4,33.0,29.96,NNE,20,0.0,-999.0,94,-99.99,,,0.02,weatherlink.com 1.10,2013-05-09 07:25:00,
2013-05-09 01:40:00,34.4,33.0,29.96,NNE,19,2.0,-999.0,94,-99.99,,,0.02,weatherlink.com 1.10,2013-05-09 07:40:00,
2013-05-09 01:55:00,34.7,33.0,29.96,ENE,59,0.0,-999.0,94,-99.99,,,0.02,weatherlink.com 1.10,2013-05-09 07:55:00,
2013-05-09 02:10:00,34.7,33.0,29.96,NE,50,3.0,-999.0,94,-99.99,,,0.02,weatherlink.com 1.10,2013-05-09 08:10:00,
2013-05-09 02:25:00,34.7,33.0,29.95,NE,51,0.0,-999.0,94,-99.99,,,0.03,weatherlink.com 1.10,2013-05-09 08:25:00,
2013-05-09 02:40:00,34.7,33.0,29.95,NE,40,0.0,-999.0,94,-99.99,,,0.03,weatherlink.com 1.10,2013-05-09 08:40:00,
2013-05-09 02:55:00,34.9,33.0,29.95,NE,53,0.0,-999.0,94,-99.99,,,0.03,weatherlink.com 1.10,2013-05-09 08:55:00,
2013-05-09 03:10:00,34.9,33.0,29.95,NE,46,0.0,-999.0,94,-99.99,,,0.03,weatherlink.com 1.10,2013-05-09 09:10:00,
2013-05-09 03:25:00,34.8,33.0,29.96,NE,45,3.0,-999.0,94,-99.99,,,0.04,weatherlink.com 1.10,2013-05-09 09:25:00,
2013-05-09 03:40:00,34.6,33.0,29.96,NE,45,0.0,-999.0,94,-99.99,,,0.04,weatherlink.com 1.10,2013-05-09 09:40:00,
2013-05-09 03:55:00,34.4,33.0,29.96,NE,45,0.0,-999.0,94,-99.99,,,0.04,weatherlink.com 1.10,2013-05-09 09:55:00,
2013-05-09 04:10:00,34.4,33.0,29.97,NE,49,0.0,-999.0,94,-99.99,,,0.04,weatherlink.com 1.10,2013-05-09 10:10:00,
2013-05-09 04:25:00,34.5,33.0,29.97,NE,51,6.0,-999.0,94,-99.99,,,0.05,weatherlink.com 1.10,2013-05-09 10:25:00,
2013-05-09 04:40:00,34.4,33.0,29.97,North,360,3.0,-999.0,94,-99.99,,,0.05,weatherlink.com 1.10,2013-05-09 10:40:00,
2013-05-09 04:55:00,34.4,33.0,29.97,North,10,5.0,-999.0,94,-99.99,,,0.05,weatherlink.com 1.10,2013-05-09 10:55:00,
2013-05-09 05:10:00,33.4,32.0,29.98,North,9,12.0,-999.0,93,-99.99,,,0.05,weatherlink.com 1.10,2013-05-09 11:10:00,
2013-05-09 05:25:00,32.3,31.0,29.98,NE,37,2.0,-999.0,93,-99.99,,,0.06,weatherlink.com 1.10,2013-05-09 11:25:00,
2013-05-09 05:40:00,31.9,30.0,29.99,NE,40,3.0,-999.0,93,-99.99,,,0.06,weatherlink.com 1.10,2013-05-09 11:40:00,
2013-05-09 05:55:00,32.1,31.0,29.99,SE,132,4.0,-999.0,94,-99.99,,,0.06,weatherlink.com 1.10,2013-05-09 11:55:00,
2013-05-09 06:10:00,32.0,31.0,29.99,NE,37,0.0,-999.0,94,-99.99,,,0.06,weatherlink.com 1.10,2013-05-09 12:10:00,
2013-05-09 06:25:00,32.8,31.0,30.00,NE,38,5.0,-999.0,94,-99.99,,,0.06,weatherlink.com 1.10,2013-05-09 12:25:00,
2013-05-09 06:40:00,32.7,31.0,30.00,NE,38,0.0,-999.0,94,-99.99,,,0.06,weatherlink.com 1.10,2013-05-09 12:40:00,
2013-05-09 06:55:00,32.5,31.0,30.01,NE,38,0.0,-999.0,94,-99.99,,,0.06,weatherlink.com 1.10,2013-05-09 12:55:00,
2013-05-09 07:10:00,32.6,31.0,30.02,NE,38,1.0,-999.0,94,-99.99,,,0.06,weatherlink.com 1.10,2013-05-09 13:10:00,
2013-05-09 07:25:00,33.4,32.0,30.02,NE,44,3.0,-999.0,94,-99.99,,,0.07,weatherlink.com 1.10,2013-05-09 13:25:00,
2013-05-09 07:40:00,34.4,33.0,30.02,NNE,23,4.0,-999.0,94,-99.99,,,0.07,weatherlink.com 1.10,2013-05-09 13:40:00,
2013-05-09 07:55:00,35.0,34.0,30.03,NNE,23,3.0,-999.0,94,-99.99,,,0.08,weatherlink.com 1.10,2013-05-09 13:55:00,
2013-05-09 08:11:00,35.1,34.0,30.03,NNE,24,2.0,-999.0,94,-99.99,,,0.09,weatherlink.com 1.10,2013-05-09 14:11:00,
2013-05-09 08:26:00,35.6,34.0,30.04,NNE,30,0.0,-999.0,94,-99.99,,,0.10,weatherlink.com 1.10,2013-05-09 14:26:00,
2013-05-09 08:41:00,36.5,37.0,30.04,NNE,30,1.0,-999.0,100,-99.99,,,0.13,weatherlink.com 1.10,2013-05-09 14:41:00,
2013-05-09 08:56:00,37.0,36.0,30.04,NNE,29,1.0,-999.0,95,-99.99,,,0.16,weatherlink.com 1.10,2013-05-09 14:56:00,
2013-05-09 09:11:00,37.2,36.0,30.04,NNE,22,3.0,-999.0,94,-99.99,,,0.19,weatherlink.com 1.10,2013-05-09 15:11:00,
2013-05-09 09:26:00,36.8,35.0,30.04,NNE,22,2.0,-999.0,94,-99.99,,,0.22,weatherlink.com 1.10,2013-05-09 15:26:00,
2013-05-09 09:41:00,36.5,35.0,30.04,NNE,31,5.0,-999.0,94,-99.99,,,0.23,weatherlink.com 1.10,2013-05-09 15:41:00,
2013-05-09 09:56:00,36.9,35.0,30.05,North,11,10.0,-999.0,94,-99.99,,,0.25,weatherlink.com 1.10,2013-05-09 15:56:00,
2013-05-09 10:11:00,37.6,36.0,30.04,North,360,2.0,-999.0,94,-99.99,,,0.28,weatherlink.com 1.10,2013-05-09 16:11:00,
2013-05-09 10:26:00,38.3,37.0,30.05,North,9,4.0,-999.0,93,-99.99,,,0.31,weatherlink.com 1.10,2013-05-09 16:26:00,
2013-05-09 10:41:00,39.1,37.0,30.05,North,10,1.0,-999.0,92,-99.99,,,0.34,weatherlink.com 1.10,2013-05-09 16:41:00,
2013-05-09 10:56:00,40.7,37.0,30.06,ENE,67,1.0,-999.0,87,-99.99,,,0.39,weatherlink.com 1.10,2013-05-09 16:56:00,
2013-05-09 11:11:00,41.1,37.0,30.06,ENE,65,0.0,-999.0,86,-99.99,,,0.42,weatherlink.com 1.10,2013-05-09 17:11:00,
2013-05-09 11:26:00,41.1,35.0,30.06,NE,52,5.0,-999.0,80,-99.99,,,0.46,weatherlink.com 1.10,2013-05-09 17:26:00,
2013-05-09 11:41:00,41.4,36.0,30.06,ENE,69,0.0,-999.0,80,-99.99,,,0.49,weatherlink.com 1.10,2013-05-09 17:41:00,
2013-05-09 11:56:00,41.6,36.0,30.06,SSE,150,3.0,-999.0,80,-99.99,,,0.52,weatherlink.com 1.10,2013-05-09 17:56:00,
2013-05-09 12:11:00,42.0,35.0,30.07,SE,136,0.0,-999.0,75,-99.99,,,0.55,weatherlink.com 1.10,2013-05-09 18:11:00,
2013-05-09 12:26:00,43.4,38.0,30.07,NE,52,4.0,-999.0,80,-99.99,,,0.57,weatherlink.com 1.10,2013-05-09 18:26:00,
2013-05-09 12:56:00,38.8,33.0,30.07,North,360,15.0,-999.0,80,-99.99,,,0.58,weatherlink.com 1.10,2013-05-09 18:56:00,
2013-05-09 13:11:00,34.2,31.0,30.09,North,360,16.0,-999.0,88,-99.99,,,0.59,weatherlink.com 1.10,2013-05-09 19:11:00,
2013-05-09 13:26:00,32.2,30.0,30.10,NNE,31,7.0,-999.0,91,-99.99,,,0.59,weatherlink.com 1.10,2013-05-09 19:26:00,
2013-05-09 13:41:00,31.7,30.0,30.11,North,11,7.0,-999.0,92,-99.99,,,0.59,weatherlink.com 1.10,2013-05-09 19:41:00,
2013-05-09 13:56:00,31.7,30.0,30.11,NNE,14,3.0,-999.0,92,-99.99,,,0.59,weatherlink.com 1.10,2013-05-09 19:56:00,
2013-05-09 14:11:00,32.4,31.0,30.11,North,360,0.0,-999.0,93,-99.99,,,0.59,weatherlink.com 1.10,2013-05-09 20:11:00,
2013-05-09 14:26:00,33.0,31.0,30.12,NNE,22,0.0,-999.0,93,-99.99,,,0.59,weatherlink.com 1.10,2013-05-09 20:26:00,
2013-05-09 14:41:00,34.5,33.0,30.11,North,360,0.0,-999.0,94,-99.99,,,0.59,weatherlink.com 1.10,2013-05-09 20:41:00,
2013-05-09 14:56:00,36.8,35.0,30.11,NNW,327,3.0,-999.0,94,-99.99,,,0.61,weatherlink.com 1.10,2013-05-09 20:56:00,
2013-05-09 15:11:00,39.2,38.0,30.11,NW,320,2.0,-999.0,94,-99.99,,,0.68,weatherlink.com 1.10,2013-05-09 21:11:00,
2013-05-09 15:26:00,40.2,38.0,30.10,WNW,303,2.0,-999.0,92,-99.99,,,0.72,weatherlink.com 1.10,2013-05-09 21:26:00,
2013-05-09 15:41:00,41.6,39.0,30.10,NW,305,4.0,-999.0,90,-99.99,,,0.75,weatherlink.com 1.10,2013-05-09 21:41:00,
2013-05-09 15:56:00,39.9,36.0,30.11,NNE,21,1.0,-999.0,86,-99.99,,,0.76,weatherlink.com 1.10,2013-05-09 21:56:00,
2013-05-09 16:11:00,37.8,34.0,30.10,SSE,159,6.0,-999.0,87,-99.99,,,0.77,weatherlink.com 1.10,2013-05-09 22:11:00,
2013-05-09 16:26:00,37.6,36.0,30.10,SSE,166,1.0,-999.0,92,-99.99,,,0.79,weatherlink.com 1.10,2013-05-09 22:26:00,
2013-05-09 16:41:00,40.6,39.0,30.10,SSE,161,0.0,-999.0,94,-99.99,,,0.80,weatherlink.com 1.10,2013-05-09 22:41:00,
2013-05-09 16:56:00,41.8,39.0,30.10,SW,224,3.0,-999.0,89,-99.99,,,0.81,weatherlink.com 1.10,2013-05-09 22:56:00,
2013-05-09 17:11:00,42.0,40.0,30.10,West,274,3.0,-999.0,91,-99.99,,,0.82,weatherlink.com 1.10,2013-05-09 23:11:00,
2013-05-09 17:26:00,42.0,38.0,30.10,WNW,298,1.0,-999.0,86,-99.99,,,0.82,weatherlink.com 1.10,2013-05-09 23:26:00,
2013-05-09 17:41:00,40.8,37.0,30.10,NNW,333,4.0,-999.0,87,-99.99,,,0.82,weatherlink.com 1.10,2013-05-09 23:41:00,
2013-05-09 17:56:00,39.7,37.0,30.10,NNW,348,3.0,-999.0,88,-99.99,,,0.82,weatherlink.com 1.10,2013-05-09 23:56:00,
2013-05-09 18:11:00,39.5,37.0,30.10,North,349,5.0,-999.0,90,-99.99,,,0.82,weatherlink.com 1.10,2013-05-10 00:11:00,
2013-05-09 18:27:00,39.5,37.0,30.09,NW,325,5.0,-999.0,90,-99.99,,,0.82,weatherlink.com 1.10,2013-05-10 00:27:00,
2013-05-09 18:42:00,39.7,37.0,30.09,NW,325,2.0,-999.0,89,-99.99,,,0.82,weatherlink.com 1.10,2013-05-10 00:42:00,
2013-05-09 18:57:00,39.8,37.0,30.08,NW,325,2.0,-999.0,89,-99.99,,,0.82,weatherlink.com 1.10,2013-05-10 00:57:00,
2013-05-09 19:12:00,39.7,37.0,30.08,NW,321,3.0,-999.0,88,-99.99,,,0.82,weatherlink.com 1.10,2013-05-10 01:12:00,
2013-05-09 19:42:00,38.7,35.0,30.09,WNW,285,0.0,-999.0,85,-99.99,,,0.82,weatherlink.com 1.10,2013-05-10 01:42:00,
2013-05-09 19:57:00,38.0,34.0,30.09,WNW,285,2.0,-999.0,86,-99.99,,,0.82,weatherlink.com 1.10,2013-05-10 01:57:00,
2013-05-09 20:12:00,37.0,33.0,30.09,WNW,294,5.0,-999.0,86,-99.99,,,0.82,weatherlink.com 1.10,2013-05-10 02:12:00,
2013-05-09 20:27:00,36.4,34.0,30.10,NW,306,2.0,-999.0,89,-99.99,,,0.82,weatherlink.com 1.10,2013-05-10 02:27:00,
2013-05-09 20:42:00,36.3,34.0,30.10,WNW,302,2.0,-999.0,90,-99.99,,,0.82,weatherlink.com 1.10,2013-05-10 02:42:00,
2013-05-09 20:57:00,36.1,33.0,30.11,NW,306,3.0,-999.0,88,-99.99,,,0.82,weatherlink.com 1.10,2013-05-10 02:57:00,
2013-05-09 21:12:00,35.9,32.0,30.11,WNW,294,0.0,-999.0,87,-99.99,,,0.82,weatherlink.com 1.10,2013-05-10 03:12:00,
2013-05-09 21:27:00,35.9,32.0,30.12,WNW,296,0.0,-999.0,87,-99.99,,,0.82,weatherlink.com 1.10,2013-05-10 03:27:00,
2013-05-09 21:42:00,36.0,33.0,30.12,WNW,296,0.0,-999.0,87,-99.99,,,0.82,weatherlink.com 1.10,2013-05-10 03:42:00,
2013-05-09 21:57:00,35.9,32.0,30.12,WNW,296,0.0,-999.0,87,-99.99,,,0.82,weatherlink.com 1.10,2013-05-10 03:57:00,
2013-05-09 22:12:00,35.7,31.0,30.12,WNW,296,0.0,-999.0,83,-99.99,,,0.82,weatherlink.com 1.10,2013-05-10 04:12:00,
2013-05-09 22:27:00,35.3,31.0,30.11,North,360,0.0,-999.0,83,-99.99,,,0.82,weatherlink.com 1.10,2013-05-10 04:27:00,
2013-05-09 22:42:00,34.6,31.0,30.11,North,360,0.0,-999.0,86,-99.99,,,0.82,weatherlink.com 1.10,2013-05-10 04:42:00,
2013-05-09 22:57:00,33.9,31.0,30.11,North,360,0.0,-999.0,87,-99.99,,,0.82,weatherlink.com 1.10,2013-05-10 04:57:00,
2013-05-09 23:12:00,33.3,30.0,30.12,West,271,2.0,-999.0,89,-99.99,,,0.82,weatherlink.com 1.10,2013-05-10 05:12:00,
2013-05-09 23:27:00,33.0,30.0,30.12,North,360,1.0,-999.0,90,-99.99,,,0.82,weatherlink.com 1.10,2013-05-10 05:27:00,
2013-05-09 23:42:00,32.9,30.0,30.12,North,360,1.0,-999.0,90,-99.99,,,0.82,weatherlink.com 1.10,2013-05-10 05:42:00,
2013-05-09 23:57:00,32.7,30.0,30.13,North,360,2.0,-999.0,90,-99.99,,,0.82,weatherlink.com 1.10,2013-05-10 05:57:00,